Mililani, HI (96789)

10:45 PM HST on May 29, 2015 (GMT -1000)
Mililani Town | | Change Station
CLOSE
Current Station
Personal Weather Station
Location: Mililani, HI
Elevation: 659 ft
Nearby Weather Stations

Elev 659 ft 21.45 °N, 158.00 °W | Updated 38 seconds ago

Clear
Clear
69.4 °F
Feels Like 69.4 °F
N
5.3
Wind Variable Wind from NNW

Today
High -- | Low -- °F
--% Chance of Precip.
Yesterday
High -- | Low -- °F
Precip. -- in
5:49 AM 7:09 PM
Waxing Gibbous, 89% visible
Pressure 29.97 in
Visibility 10.0 miles
Clouds Clear
Dew Point 69 °F
Humidity 98%
Rainfall 0.06 in
Snow Depth Not available.
UV 0 out of 12
Pollen Not available.
Air Quality Not available.
Flu Activity Local Activity
METAR PHHI 300558Z AUTO 31005KT 10SM CLR 21/17 A2999 RMK AO2 SLP147 60002 T02140168 10250 20214 53012 $

More Conditions Fewer Conditions

Pressure 29.97 in
Visibility 10.0 miles
Clouds Clear
Dew Point 69 °F
Humidity 98%
Rainfall 0.06 in
Snow Depth Not available.
UV 0 out of 12
Pollen Not available.
Air Quality Not available.
Flu Activity Local Activity
METAR PHHI 300558Z AUTO 31005KT 10SM CLR 21/17 A2999 RMK AO2 SLP147 60002 T02140168 10250 20214 53012 $

More Conditions Fewer Conditions

10-Day Weather Forecast

Almanac

Astronomy

May. 29, 2015 Rise Set
Actual Time
Civil Twilight
Nautical Twilight
Astronomical Twilight
Moon
Length of Visible Light
Length of Day
Tomorrow will be .
, % of the Moon is Illuminated

Today's Extremes

State Highs State Lows

Community

WunderPhotos

Upload Photos

1,825,472 photos uploaded!

WunderBlogs® & News

Nearby

Air Quality

  Air Quality AQ Index Pollutant
Not available.

Snow Depth

Station Depth Elevation

Earthquake Activity

City Distance Mag. Time & Date
Minimum magnitude displayed is 2.5.

Coastal Water Temperatures

Place Temperature

Stations

Nearby Weather Stations

Station Location Temp. Windchill Dew Point Humidity Wind Precip. Elev Updated Type